sensor_id;sensor_type;location;lat;lon;timestamp;P1;durP1;ratioP1;P2;durP2;ratioP2
31728;SDS011;18309;43.658;1.312;2023-05-16T00:00:06;8.40;;;2.75;;
31728;SDS011;18309;43.658;1.312;2023-05-16T00:02:36;9.75;;;3.03;;
31728;SDS011;18309;43.658;1.312;2023-05-16T00:05:03;11.52;;;3.03;;
31728;SDS011;18309;43.658;1.312;2023-05-16T00:07:32;17.50;;;3.17;;
31728;SDS011;18309;43.658;1.312;2023-05-16T00:09:58;6.55;;;2.55;;
31728;SDS011;18309;43.658;1.312;2023-05-16T00:12:25;15.15;;;2.97;;
31728;SDS011;18309;43.658;1.312;2023-05-16T00:14:52;8.27;;;2.70;;
31728;SDS011;18309;43.658;1.312;2023-05-16T00:17:19;15.00;;;3.17;;
31728;SDS011;18309;43.658;1.312;2023-05-16T00:19:46;10.23;;;2.63;;
31728;SDS011;18309;43.658;1.312;2023-05-16T00:22:14;12.35;;;3.15;;
31728;SDS011;18309;43.658;1.312;2023-05-16T00:24:40;11.65;;;3.30;;
31728;SDS011;18309;43.658;1.312;2023-05-16T00:27:06;13.20;;;3.15;;
31728;SDS011;18309;43.658;1.312;2023-05-16T00:29:33;11.70;;;2.92;;
31728;SDS011;18309;43.658;1.312;2023-05-16T00:31:59;9.38;;;2.58;;
31728;SDS011;18309;43.658;1.312;2023-05-16T00:34:25;14.80;;;3.00;;
31728;SDS011;18309;43.658;1.312;2023-05-16T00:36:50;11.40;;;2.85;;
31728;SDS011;18309;43.658;1.312;2023-05-16T00:39:16;8.85;;;3.00;;
31728;SDS011;18309;43.658;1.312;2023-05-16T00:41:42;12.25;;;3.70;;
31728;SDS011;18309;43.658;1.312;2023-05-16T00:44:08;8.43;;;2.75;;
31728;SDS011;18309;43.658;1.312;2023-05-16T00:46:34;12.00;;;3.05;;
31728;SDS011;18309;43.658;1.312;2023-05-16T00:49:00;23.27;;;3.15;;
31728;SDS011;18309;43.658;1.312;2023-05-16T00:51:26;12.05;;;3.55;;
31728;SDS011;18309;43.658;1.312;2023-05-16T00:53:52;13.35;;;3.25;;
31728;SDS011;18309;43.658;1.312;2023-05-16T00:56:19;12.85;;;3.22;;
31728;SDS011;18309;43.658;1.312;2023-05-16T00:58:46;14.13;;;3.17;;
31728;SDS011;18309;43.658;1.312;2023-05-16T01:01:11;9.68;;;3.28;;
31728;SDS011;18309;43.658;1.312;2023-05-16T01:03:38;12.50;;;2.75;;
31728;SDS011;18309;43.658;1.312;2023-05-16T01:06:04;15.93;;;3.00;;
31728;SDS011;18309;43.658;1.312;2023-05-16T01:08:30;9.02;;;2.38;;
31728;SDS011;18309;43.658;1.312;2023-05-16T01:10:59;9.02;;;3.55;;
31728;SDS011;18309;43.658;1.312;2023-05-16T01:13:42;10.07;;;2.97;;
31728;SDS011;18309;43.658;1.312;2023-05-16T01:16:32;13.88;;;2.95;;
31728;SDS011;18309;43.658;1.312;2023-05-16T01:21:49;13.77;;;3.08;;
31728;SDS011;18309;43.658;1.312;2023-05-16T01:24:22;15.95;;;3.35;;
31728;SDS011;18309;43.658;1.312;2023-05-16T01:26:58;11.30;;;3.20;;
31728;SDS011;18309;43.658;1.312;2023-05-16T01:29:24;18.42;;;3.38;;
31728;SDS011;18309;43.658;1.312;2023-05-16T01:31:50;16.33;;;3.83;;
31728;SDS011;18309;43.658;1.312;2023-05-16T01:34:15;12.23;;;3.47;;
31728;SDS011;18309;43.658;1.312;2023-05-16T01:39:40;13.20;;;3.40;;
31728;SDS011;18309;43.658;1.312;2023-05-16T01:42:14;13.13;;;3.42;;
31728;SDS011;18309;43.658;1.312;2023-05-16T01:47:15;9.68;;;3.40;;
31728;SDS011;18309;43.658;1.312;2023-05-16T01:49:45;8.45;;;3.15;;
31728;SDS011;18309;43.658;1.312;2023-05-16T01:52:18;12.15;;;3.47;;
31728;SDS011;18309;43.658;1.312;2023-05-16T01:54:52;12.18;;;3.20;;
31728;SDS011;18309;43.658;1.312;2023-05-16T01:57:19;10.13;;;3.10;;
31728;SDS011;18309;43.658;1.312;2023-05-16T01:59:48;11.02;;;3.33;;
31728;SDS011;18309;43.658;1.312;2023-05-16T02:02:16;9.40;;;2.70;;
31728;SDS011;18309;43.658;1.312;2023-05-16T02:04:43;10.40;;;3.15;;
31728;SDS011;18309;43.658;1.312;2023-05-16T02:07:08;7.60;;;2.85;;
31728;SDS011;18309;43.658;1.312;2023-05-16T02:09:34;6.38;;;2.83;;
31728;SDS011;18309;43.658;1.312;2023-05-16T02:12:00;11.23;;;2.72;;
31728;SDS011;18309;43.658;1.312;2023-05-16T02:14:26;9.48;;;3.30;;
31728;SDS011;18309;43.658;1.312;2023-05-16T02:16:52;13.20;;;2.63;;
31728;SDS011;18309;43.658;1.312;2023-05-16T02:19:18;10.98;;;3.47;;
31728;SDS011;18309;43.658;1.312;2023-05-16T02:21:44;11.90;;;3.53;;
31728;SDS011;18309;43.658;1.312;2023-05-16T02:24:10;9.05;;;3.28;;
31728;SDS011;18309;43.658;1.312;2023-05-16T02:26:35;9.68;;;3.03;;
31728;SDS011;18309;43.658;1.312;2023-05-16T02:29:01;8.32;;;2.97;;
31728;SDS011;18309;43.658;1.312;2023-05-16T02:31:27;8.98;;;3.17;;
31728;SDS011;18309;43.658;1.312;2023-05-16T02:33:58;19.60;;;3.47;;
31728;SDS011;18309;43.658;1.312;2023-05-16T02:36:24;6.43;;;2.65;;
31728;SDS011;18309;43.658;1.312;2023-05-16T02:38:50;11.82;;;3.20;;
31728;SDS011;18309;43.658;1.312;2023-05-16T02:41:16;9.35;;;2.53;;
31728;SDS011;18309;43.658;1.312;2023-05-16T02:43:42;7.88;;;3.33;;
31728;SDS011;18309;43.658;1.312;2023-05-16T02:46:29;9.43;;;3.25;;
31728;SDS011;18309;43.658;1.312;2023-05-16T02:48:57;8.90;;;3.47;;
31728;SDS011;18309;43.658;1.312;2023-05-16T02:51:23;8.52;;;2.80;;
31728;SDS011;18309;43.658;1.312;2023-05-16T02:53:51;6.22;;;3.00;;
31728;SDS011;18309;43.658;1.312;2023-05-16T02:56:17;10.20;;;3.25;;
31728;SDS011;18309;43.658;1.312;2023-05-16T02:58:46;13.30;;;3.15;;
31728;SDS011;18309;43.658;1.312;2023-05-16T03:01:12;8.35;;;2.40;;
31728;SDS011;18309;43.658;1.312;2023-05-16T03:03:39;7.85;;;3.03;;
31728;SDS011;18309;43.658;1.312;2023-05-16T03:06:05;7.78;;;2.83;;
31728;SDS011;18309;43.658;1.312;2023-05-16T03:08:31;8.77;;;2.90;;
31728;SDS011;18309;43.658;1.312;2023-05-16T03:10:56;6.70;;;2.78;;
31728;SDS011;18309;43.658;1.312;2023-05-16T03:13:22;7.25;;;2.60;;
31728;SDS011;18309;43.658;1.312;2023-05-16T03:15:48;7.30;;;2.65;;
31728;SDS011;18309;43.658;1.312;2023-05-16T03:18:14;3.97;;;2.33;;
31728;SDS011;18309;43.658;1.312;2023-05-16T03:20:40;7.60;;;2.92;;
31728;SDS011;18309;43.658;1.312;2023-05-16T03:23:05;5.40;;;2.42;;
31728;SDS011;18309;43.658;1.312;2023-05-16T03:25:35;4.25;;;2.30;;
31728;SDS011;18309;43.658;1.312;2023-05-16T03:28:05;6.65;;;2.55;;
31728;SDS011;18309;43.658;1.312;2023-05-16T03:30:34;5.55;;;2.70;;
31728;SDS011;18309;43.658;1.312;2023-05-16T03:33:00;7.78;;;2.60;;
31728;SDS011;18309;43.658;1.312;2023-05-16T03:35:26;4.68;;;2.35;;
31728;SDS011;18309;43.658;1.312;2023-05-16T03:37:53;7.80;;;2.45;;
31728;SDS011;18309;43.658;1.312;2023-05-16T03:40:18;4.90;;;2.47;;
31728;SDS011;18309;43.658;1.312;2023-05-16T03:42:45;6.15;;;2.20;;
31728;SDS011;18309;43.658;1.312;2023-05-16T03:45:11;5.43;;;2.50;;
31728;SDS011;18309;43.658;1.312;2023-05-16T03:47:36;5.18;;;2.22;;
31728;SDS011;18309;43.658;1.312;2023-05-16T03:50:03;5.97;;;2.42;;
31728;SDS011;18309;43.658;1.312;2023-05-16T03:52:29;6.10;;;2.45;;
31728;SDS011;18309;43.658;1.312;2023-05-16T03:54:55;4.65;;;2.30;;
31728;SDS011;18309;43.658;1.312;2023-05-16T03:57:21;5.85;;;2.60;;
31728;SDS011;18309;43.658;1.312;2023-05-16T03:59:46;7.75;;;2.55;;
31728;SDS011;18309;43.658;1.312;2023-05-16T04:02:12;4.22;;;1.75;;
31728;SDS011;18309;43.658;1.312;2023-05-16T04:04:38;4.40;;;2.30;;
31728;SDS011;18309;43.658;1.312;2023-05-16T04:07:04;11.45;;;2.55;;
31728;SDS011;18309;43.658;1.312;2023-05-16T04:09:30;5.78;;;2.50;;
31728;SDS011;18309;43.658;1.312;2023-05-16T04:11:56;9.25;;;2.40;;
31728;SDS011;18309;43.658;1.312;2023-05-16T04:14:25;3.28;;;1.63;;
31728;SDS011;18309;43.658;1.312;2023-05-16T04:16:51;5.10;;;2.65;;
31728;SDS011;18309;43.658;1.312;2023-05-16T04:19:17;8.23;;;2.35;;
31728;SDS011;18309;43.658;1.312;2023-05-16T04:21:43;3.30;;;2.33;;
31728;SDS011;18309;43.658;1.312;2023-05-16T04:24:09;6.93;;;2.47;;
31728;SDS011;18309;43.658;1.312;2023-05-16T04:26:35;5.78;;;2.53;;
31728;SDS011;18309;43.658;1.312;2023-05-16T04:29:01;6.40;;;2.20;;
31728;SDS011;18309;43.658;1.312;2023-05-16T04:31:27;4.05;;;2.10;;
31728;SDS011;18309;43.658;1.312;2023-05-16T04:33:53;4.55;;;2.03;;
31728;SDS011;18309;43.658;1.312;2023-05-16T04:36:20;5.50;;;2.50;;
31728;SDS011;18309;43.658;1.312;2023-05-16T04:38:46;3.22;;;2.00;;
31728;SDS011;18309;43.658;1.312;2023-05-16T04:41:12;5.18;;;2.00;;
31728;SDS011;18309;43.658;1.312;2023-05-16T04:43:38;4.50;;;2.63;;
31728;SDS011;18309;43.658;1.312;2023-05-16T04:46:04;5.20;;;2.03;;
31728;SDS011;18309;43.658;1.312;2023-05-16T04:48:34;3.35;;;1.63;;
31728;SDS011;18309;43.658;1.312;2023-05-16T04:50:59;3.47;;;1.90;;
31728;SDS011;18309;43.658;1.312;2023-05-16T04:53:25;3.72;;;1.95;;
31728;SDS011;18309;43.658;1.312;2023-05-16T04:55:51;5.55;;;2.05;;
31728;SDS011;18309;43.658;1.312;2023-05-16T04:58:17;3.35;;;2.17;;
31728;SDS011;18309;43.658;1.312;2023-05-16T05:00:43;6.25;;;2.42;;
31728;SDS011;18309;43.658;1.312;2023-05-16T05:03:08;4.10;;;2.22;;
31728;SDS011;18309;43.658;1.312;2023-05-16T05:05:34;3.58;;;1.88;;
31728;SDS011;18309;43.658;1.312;2023-05-16T05:08:00;2.85;;;1.90;;
31728;SDS011;18309;43.658;1.312;2023-05-16T05:10:26;4.85;;;2.55;;
31728;SDS011;18309;43.658;1.312;2023-05-16T05:12:52;3.55;;;2.13;;
31728;SDS011;18309;43.658;1.312;2023-05-16T05:15:18;5.85;;;2.80;;
31728;SDS011;18309;43.658;1.312;2023-05-16T05:17:44;5.18;;;2.42;;
31728;SDS011;18309;43.658;1.312;2023-05-16T05:20:10;5.35;;;2.53;;
31728;SDS011;18309;43.658;1.312;2023-05-16T05:22:36;5.45;;;2.53;;
31728;SDS011;18309;43.658;1.312;2023-05-16T05:25:02;4.40;;;2.80;;
31728;SDS011;18309;43.658;1.312;2023-05-16T05:27:28;6.07;;;3.30;;
31728;SDS011;18309;43.658;1.312;2023-05-16T05:29:54;9.68;;;3.28;;
31728;SDS011;18309;43.658;1.312;2023-05-16T05:32:20;5.78;;;3.20;;
31728;SDS011;18309;43.658;1.312;2023-05-16T05:34:45;5.38;;;3.35;;
31728;SDS011;18309;43.658;1.312;2023-05-16T05:37:11;5.40;;;3.20;;
31728;SDS011;18309;43.658;1.312;2023-05-16T05:39:37;5.40;;;3.65;;
31728;SDS011;18309;43.658;1.312;2023-05-16T05:42:03;6.15;;;3.30;;
31728;SDS011;18309;43.658;1.312;2023-05-16T05:44:29;6.45;;;3.25;;
31728;SDS011;18309;43.658;1.312;2023-05-16T05:46:55;5.65;;;3.22;;
31728;SDS011;18309;43.658;1.312;2023-05-16T05:49:22;5.95;;;3.30;;
31728;SDS011;18309;43.658;1.312;2023-05-16T05:51:49;7.20;;;3.20;;
31728;SDS011;18309;43.658;1.312;2023-05-16T05:54:18;5.32;;;3.17;;
31728;SDS011;18309;43.658;1.312;2023-05-16T05:56:44;5.70;;;3.08;;
31728;SDS011;18309;43.658;1.312;2023-05-16T05:59:10;4.65;;;2.80;;
31728;SDS011;18309;43.658;1.312;2023-05-16T06:01:36;6.90;;;3.42;;
31728;SDS011;18309;43.658;1.312;2023-05-16T06:04:02;6.60;;;4.20;;
31728;SDS011;18309;43.658;1.312;2023-05-16T06:06:27;6.75;;;3.55;;
31728;SDS011;18309;43.658;1.312;2023-05-16T06:08:53;5.70;;;3.63;;
31728;SDS011;18309;43.658;1.312;2023-05-16T06:11:19;6.15;;;3.80;;
31728;SDS011;18309;43.658;1.312;2023-05-16T06:13:45;5.30;;;3.50;;
31728;SDS011;18309;43.658;1.312;2023-05-16T06:16:11;4.90;;;3.30;;
31728;SDS011;18309;43.658;1.312;2023-05-16T06:18:37;4.40;;;3.00;;
31728;SDS011;18309;43.658;1.312;2023-05-16T06:21:03;4.30;;;3.30;;
31728;SDS011;18309;43.658;1.312;2023-05-16T06:23:29;4.30;;;2.88;;
31728;SDS011;18309;43.658;1.312;2023-05-16T06:25:55;6.47;;;3.20;;
31728;SDS011;18309;43.658;1.312;2023-05-16T06:28:21;4.80;;;2.92;;
31728;SDS011;18309;43.658;1.312;2023-05-16T06:30:48;5.03;;;3.20;;
31728;SDS011;18309;43.658;1.312;2023-05-16T06:33:15;5.25;;;3.20;;
31728;SDS011;18309;43.658;1.312;2023-05-16T06:35:44;6.68;;;3.40;;
31728;SDS011;18309;43.658;1.312;2023-05-16T06:38:10;5.18;;;3.28;;
31728;SDS011;18309;43.658;1.312;2023-05-16T06:40:36;8.25;;;4.15;;
31728;SDS011;18309;43.658;1.312;2023-05-16T06:43:02;13.38;;;4.10;;
31728;SDS011;18309;43.658;1.312;2023-05-16T06:45:27;8.73;;;3.65;;
31728;SDS011;18309;43.658;1.312;2023-05-16T06:47:54;8.15;;;3.95;;
31728;SDS011;18309;43.658;1.312;2023-05-16T06:50:20;5.40;;;3.20;;
31728;SDS011;18309;43.658;1.312;2023-05-16T06:52:46;10.23;;;4.18;;
31728;SDS011;18309;43.658;1.312;2023-05-16T06:55:12;6.45;;;3.95;;
31728;SDS011;18309;43.658;1.312;2023-05-16T06:57:38;10.30;;;5.07;;
31728;SDS011;18309;43.658;1.312;2023-05-16T07:00:04;5.00;;;3.42;;
31728;SDS011;18309;43.658;1.312;2023-05-16T07:02:30;11.30;;;3.85;;
31728;SDS011;18309;43.658;1.312;2023-05-16T07:04:56;5.47;;;2.90;;
31728;SDS011;18309;43.658;1.312;2023-05-16T07:07:21;10.43;;;3.25;;
31728;SDS011;18309;43.658;1.312;2023-05-16T07:09:47;6.90;;;3.00;;
31728;SDS011;18309;43.658;1.312;2023-05-16T07:12:13;4.85;;;2.95;;
31728;SDS011;18309;43.658;1.312;2023-05-16T07:14:38;3.40;;;2.60;;
31728;SDS011;18309;43.658;1.312;2023-05-16T07:17:04;11.82;;;3.22;;
31728;SDS011;18309;43.658;1.312;2023-05-16T07:19:30;5.95;;;2.83;;
31728;SDS011;18309;43.658;1.312;2023-05-16T07:21:56;8.10;;;3.85;;
31728;SDS011;18309;43.658;1.312;2023-05-16T07:24:22;3.88;;;2.55;;
31728;SDS011;18309;43.658;1.312;2023-05-16T07:26:47;9.43;;;3.30;;
31728;SDS011;18309;43.658;1.312;2023-05-16T07:29:13;5.15;;;2.80;;
31728;SDS011;18309;43.658;1.312;2023-05-16T07:31:39;7.63;;;3.38;;
31728;SDS011;18309;43.658;1.312;2023-05-16T07:34:05;4.90;;;3.10;;
31728;SDS011;18309;43.658;1.312;2023-05-16T07:36:31;7.00;;;2.88;;
31728;SDS011;18309;43.658;1.312;2023-05-16T07:38:57;4.57;;;3.00;;
31728;SDS011;18309;43.658;1.312;2023-05-16T07:41:23;8.05;;;2.95;;
31728;SDS011;18309;43.658;1.312;2023-05-16T07:43:49;8.18;;;3.28;;
31728;SDS011;18309;43.658;1.312;2023-05-16T07:46:16;8.38;;;3.60;;
31728;SDS011;18309;43.658;1.312;2023-05-16T07:48:42;8.60;;;2.80;;
31728;SDS011;18309;43.658;1.312;2023-05-16T07:51:07;4.95;;;2.75;;
31728;SDS011;18309;43.658;1.312;2023-05-16T07:53:33;4.10;;;2.63;;
31728;SDS011;18309;43.658;1.312;2023-05-16T07:55:59;4.63;;;2.85;;
31728;SDS011;18309;43.658;1.312;2023-05-16T07:58:25;6.97;;;2.67;;
31728;SDS011;18309;43.658;1.312;2023-05-16T08:00:51;3.92;;;2.42;;
31728;SDS011;18309;43.658;1.312;2023-05-16T08:03:16;6.60;;;3.03;;
31728;SDS011;18309;43.658;1.312;2023-05-16T08:05:42;4.95;;;2.75;;
31728;SDS011;18309;43.658;1.312;2023-05-16T08:08:08;5.97;;;2.90;;
31728;SDS011;18309;43.658;1.312;2023-05-16T08:10:33;6.75;;;2.95;;
31728;SDS011;18309;43.658;1.312;2023-05-16T08:12:59;6.38;;;2.55;;
31728;SDS011;18309;43.658;1.312;2023-05-16T08:15:25;5.50;;;3.05;;
31728;SDS011;18309;43.658;1.312;2023-05-16T08:17:53;4.65;;;2.92;;
31728;SDS011;18309;43.658;1.312;2023-05-16T08:20:21;8.23;;;2.90;;
31728;SDS011;18309;43.658;1.312;2023-05-16T08:22:47;11.20;;;3.45;;
31728;SDS011;18309;43.658;1.312;2023-05-16T08:25:13;4.55;;;2.50;;
31728;SDS011;18309;43.658;1.312;2023-05-16T08:27:38;6.25;;;2.30;;
31728;SDS011;18309;43.658;1.312;2023-05-16T08:30:04;9.27;;;2.30;;
31728;SDS011;18309;43.658;1.312;2023-05-16T08:32:31;5.53;;;2.55;;
31728;SDS011;18309;43.658;1.312;2023-05-16T08:34:56;12.50;;;2.45;;
31728;SDS011;18309;43.658;1.312;2023-05-16T08:37:22;4.15;;;2.80;;
31728;SDS011;18309;43.658;1.312;2023-05-16T08:39:48;63.50;;;4.45;;
31728;SDS011;18309;43.658;1.312;2023-05-16T08:42:14;10.82;;;3.22;;
31728;SDS011;18309;43.658;1.312;2023-05-16T08:44:40;7.75;;;3.40;;
31728;SDS011;18309;43.658;1.312;2023-05-16T08:47:12;5.30;;;2.60;;
31728;SDS011;18309;43.658;1.312;2023-05-16T08:49:43;2.53;;;1.65;;
31728;SDS011;18309;43.658;1.312;2023-05-16T08:52:12;5.35;;;2.15;;
31728;SDS011;18309;43.658;1.312;2023-05-16T08:54:42;3.72;;;1.90;;
31728;SDS011;18309;43.658;1.312;2023-05-16T08:57:10;4.10;;;2.25;;
31728;SDS011;18309;43.658;1.312;2023-05-16T08:59:35;4.18;;;2.03;;
31728;SDS011;18309;43.658;1.312;2023-05-16T09:02:02;2.97;;;1.90;;
31728;SDS011;18309;43.658;1.312;2023-05-16T09:04:29;2.80;;;2.10;;
31728;SDS011;18309;43.658;1.312;2023-05-16T09:06:55;8.82;;;2.60;;
31728;SDS011;18309;43.658;1.312;2023-05-16T09:09:22;3.53;;;1.67;;
31728;SDS011;18309;43.658;1.312;2023-05-16T09:11:48;5.13;;;1.90;;
31728;SDS011;18309;43.658;1.312;2023-05-16T09:14:15;3.30;;;1.83;;
31728;SDS011;18309;43.658;1.312;2023-05-16T09:16:41;4.07;;;1.60;;
31728;SDS011;18309;43.658;1.312;2023-05-16T09:19:11;5.72;;;2.08;;
31728;SDS011;18309;43.658;1.312;2023-05-16T09:21:37;3.50;;;1.73;;
31728;SDS011;18309;43.658;1.312;2023-05-16T09:24:04;4.22;;;1.85;;
31728;SDS011;18309;43.658;1.312;2023-05-16T09:26:35;7.18;;;1.83;;
31728;SDS011;18309;43.658;1.312;2023-05-16T09:29:11;3.25;;;1.63;;
31728;SDS011;18309;43.658;1.312;2023-05-16T09:31:37;12.10;;;2.90;;
31728;SDS011;18309;43.658;1.312;2023-05-16T09:34:06;3.78;;;2.10;;
31728;SDS011;18309;43.658;1.312;2023-05-16T09:36:32;6.22;;;1.55;;
31728;SDS011;18309;43.658;1.312;2023-05-16T09:38:59;4.93;;;1.67;;
31728;SDS011;18309;43.658;1.312;2023-05-16T09:41:25;8.10;;;2.00;;
31728;SDS011;18309;43.658;1.312;2023-05-16T09:43:51;7.07;;;2.10;;
31728;SDS011;18309;43.658;1.312;2023-05-16T09:46:17;4.50;;;2.10;;
31728;SDS011;18309;43.658;1.312;2023-05-16T09:48:44;5.97;;;2.00;;
31728;SDS011;18309;43.658;1.312;2023-05-16T09:51:12;4.50;;;2.00;;
31728;SDS011;18309;43.658;1.312;2023-05-16T09:53:39;3.63;;;1.73;;
31728;SDS011;18309;43.658;1.312;2023-05-16T09:56:12;6.68;;;2.10;;
31728;SDS011;18309;43.658;1.312;2023-05-16T09:58:41;5.32;;;2.20;;
31728;SDS011;18309;43.658;1.312;2023-05-16T10:01:09;5.17;;;1.70;;
31728;SDS011;18309;43.658;1.312;2023-05-16T10:03:36;12.48;;;2.20;;
31728;SDS011;18309;43.658;1.312;2023-05-16T10:06:03;3.53;;;1.90;;
31728;SDS011;18309;43.658;1.312;2023-05-16T10:08:31;6.38;;;2.03;;
31728;SDS011;18309;43.658;1.312;2023-05-16T10:11:02;8.07;;;2.42;;
31728;SDS011;18309;43.658;1.312;2023-05-16T10:13:30;4.53;;;1.98;;
31728;SDS011;18309;43.658;1.312;2023-05-16T10:15:59;2.45;;;1.65;;
31728;SDS011;18309;43.658;1.312;2023-05-16T10:18:30;3.65;;;1.83;;
31728;SDS011;18309;43.658;1.312;2023-05-16T10:21:03;5.28;;;1.98;;
31728;SDS011;18309;43.658;1.312;2023-05-16T10:23:30;5.22;;;2.08;;
31728;SDS011;18309;43.658;1.312;2023-05-16T10:25:59;6.55;;;2.10;;
31728;SDS011;18309;43.658;1.312;2023-05-16T10:28:27;3.08;;;1.88;;
31728;SDS011;18309;43.658;1.312;2023-05-16T10:30:53;3.33;;;2.00;;
31728;SDS011;18309;43.658;1.312;2023-05-16T10:33:20;3.47;;;2.03;;
31728;SDS011;18309;43.658;1.312;2023-05-16T10:35:46;2.78;;;1.92;;
31728;SDS011;18309;43.658;1.312;2023-05-16T10:38:12;4.25;;;2.00;;
31728;SDS011;18309;43.658;1.312;2023-05-16T10:40:41;4.32;;;1.83;;
31728;SDS011;18309;43.658;1.312;2023-05-16T10:43:07;3.13;;;2.00;;
31728;SDS011;18309;43.658;1.312;2023-05-16T10:45:34;5.65;;;2.15;;
31728;SDS011;18309;43.658;1.312;2023-05-16T10:48:06;3.90;;;1.35;;
31728;SDS011;18309;43.658;1.312;2023-05-16T10:50:40;3.95;;;1.88;;
31728;SDS011;18309;43.658;1.312;2023-05-16T10:53:30;3.78;;;1.77;;
31728;SDS011;18309;43.658;1.312;2023-05-16T11:16:50;1.88;;;1.08;;
31728;SDS011;18309;43.658;1.312;2023-05-16T11:19:27;4.47;;;1.20;;
31728;SDS011;18309;43.658;1.312;2023-05-16T11:25:03;3.55;;;0.90;;
31728;SDS011;18309;43.658;1.312;2023-05-16T11:32:35;7.07;;;1.75;;
31728;SDS011;18309;43.658;1.312;2023-05-16T11:37:28;2.10;;;1.10;;
31728;SDS011;18309;43.658;1.312;2023-05-16T11:39:57;5.88;;;1.30;;
31728;SDS011;18309;43.658;1.312;2023-05-16T11:42:27;4.30;;;1.67;;
31728;SDS011;18309;43.658;1.312;2023-05-16T11:47:33;4.30;;;1.00;;
31728;SDS011;18309;43.658;1.312;2023-05-16T11:50:02;6.70;;;1.00;;
31728;SDS011;18309;43.658;1.312;2023-05-16T11:52:35;2.67;;;0.98;;
31728;SDS011;18309;43.658;1.312;2023-05-16T11:55:02;3.63;;;1.00;;
31728;SDS011;18309;43.658;1.312;2023-05-16T11:57:30;6.18;;;1.17;;
31728;SDS011;18309;43.658;1.312;2023-05-16T12:00:01;9.52;;;1.25;;
31728;SDS011;18309;43.658;1.312;2023-05-16T12:02:38;2.28;;;0.73;;
31728;SDS011;18309;43.658;1.312;2023-05-16T12:05:07;4.32;;;1.40;;
31728;SDS011;18309;43.658;1.312;2023-05-16T12:07:34;4.05;;;1.08;;
31728;SDS011;18309;43.658;1.312;2023-05-16T12:10:04;10.00;;;1.75;;
31728;SDS011;18309;43.658;1.312;2023-05-16T12:12:31;7.85;;;1.65;;
31728;SDS011;18309;43.658;1.312;2023-05-16T12:14:57;4.57;;;1.55;;
31728;SDS011;18309;43.658;1.312;2023-05-16T12:17:23;11.52;;;1.67;;
31728;SDS011;18309;43.658;1.312;2023-05-16T12:19:49;11.13;;;1.70;;
31728;SDS011;18309;43.658;1.312;2023-05-16T12:22:16;4.18;;;1.42;;
31728;SDS011;18309;43.658;1.312;2023-05-16T12:24:45;5.05;;;1.52;;
31728;SDS011;18309;43.658;1.312;2023-05-16T12:27:12;4.45;;;1.58;;
31728;SDS011;18309;43.658;1.312;2023-05-16T12:29:48;11.05;;;2.20;;
31728;SDS011;18309;43.658;1.312;2023-05-16T12:32:18;7.15;;;1.50;;
31728;SDS011;18309;43.658;1.312;2023-05-16T12:34:50;5.32;;;1.75;;
31728;SDS011;18309;43.658;1.312;2023-05-16T12:37:19;4.35;;;1.25;;
31728;SDS011;18309;43.658;1.312;2023-05-16T12:39:45;10.60;;;1.23;;
31728;SDS011;18309;43.658;1.312;2023-05-16T12:42:12;18.13;;;1.33;;
31728;SDS011;18309;43.658;1.312;2023-05-16T12:44:39;6.93;;;1.77;;
31728;SDS011;18309;43.658;1.312;2023-05-16T12:49:35;6.13;;;1.60;;
31728;SDS011;18309;43.658;1.312;2023-05-16T12:52:03;5.75;;;1.50;;
31728;SDS011;18309;43.658;1.312;2023-05-16T12:54:29;8.23;;;1.42;;
31728;SDS011;18309;43.658;1.312;2023-05-16T12:56:55;3.33;;;1.38;;
31728;SDS011;18309;43.658;1.312;2023-05-16T12:59:21;5.35;;;1.55;;
31728;SDS011;18309;43.658;1.312;2023-05-16T13:01:47;4.03;;;1.67;;
31728;SDS011;18309;43.658;1.312;2023-05-16T13:04:12;7.20;;;1.40;;
31728;SDS011;18309;43.658;1.312;2023-05-16T13:06:42;7.97;;;1.20;;
31728;SDS011;18309;43.658;1.312;2023-05-16T13:09:08;4.07;;;1.15;;
31728;SDS011;18309;43.658;1.312;2023-05-16T13:11:35;6.25;;;1.45;;
31728;SDS011;18309;43.658;1.312;2023-05-16T13:14:01;6.07;;;1.35;;
31728;SDS011;18309;43.658;1.312;2023-05-16T13:16:27;3.25;;;1.02;;
31728;SDS011;18309;43.658;1.312;2023-05-16T13:18:52;12.13;;;1.73;;
31728;SDS011;18309;43.658;1.312;2023-05-16T13:21:18;8.38;;;1.98;;
31728;SDS011;18309;43.658;1.312;2023-05-16T13:23:44;5.45;;;1.45;;
31728;SDS011;18309;43.658;1.312;2023-05-16T13:26:09;5.60;;;1.73;;
31728;SDS011;18309;43.658;1.312;2023-05-16T13:28:35;10.52;;;1.52;;
31728;SDS011;18309;43.658;1.312;2023-05-16T13:31:01;5.80;;;1.35;;
31728;SDS011;18309;43.658;1.312;2023-05-16T13:33:28;5.22;;;1.55;;
31728;SDS011;18309;43.658;1.312;2023-05-16T13:35:54;4.32;;;1.00;;
31728;SDS011;18309;43.658;1.312;2023-05-16T13:38:21;4.15;;;1.10;;
31728;SDS011;18309;43.658;1.312;2023-05-16T13:40:46;7.65;;;1.77;;
31728;SDS011;18309;43.658;1.312;2023-05-16T13:43:12;4.28;;;1.30;;
31728;SDS011;18309;43.658;1.312;2023-05-16T13:45:39;4.90;;;1.52;;
31728;SDS011;18309;43.658;1.312;2023-05-16T13:48:05;3.75;;;1.40;;
31728;SDS011;18309;43.658;1.312;2023-05-16T13:50:31;11.25;;;2.13;;
31728;SDS011;18309;43.658;1.312;2023-05-16T13:52:57;4.80;;;1.67;;
31728;SDS011;18309;43.658;1.312;2023-05-16T13:55:22;8.70;;;1.33;;
31728;SDS011;18309;43.658;1.312;2023-05-16T13:57:48;12.35;;;1.77;;
31728;SDS011;18309;43.658;1.312;2023-05-16T14:00:14;5.80;;;2.00;;
31728;SDS011;18309;43.658;1.312;2023-05-16T14:02:40;5.60;;;1.17;;
31728;SDS011;18309;43.658;1.312;2023-05-16T14:05:07;5.63;;;1.42;;
31728;SDS011;18309;43.658;1.312;2023-05-16T14:07:34;6.78;;;1.52;;
31728;SDS011;18309;43.658;1.312;2023-05-16T14:10:00;8.18;;;1.83;;
31728;SDS011;18309;43.658;1.312;2023-05-16T14:12:26;6.82;;;1.40;;
31728;SDS011;18309;43.658;1.312;2023-05-16T14:14:51;6.13;;;1.65;;
31728;SDS011;18309;43.658;1.312;2023-05-16T14:17:18;6.53;;;1.38;;
31728;SDS011;18309;43.658;1.312;2023-05-16T14:19:45;5.20;;;1.52;;
31728;SDS011;18309;43.658;1.312;2023-05-16T14:22:11;6.25;;;1.50;;
31728;SDS011;18309;43.658;1.312;2023-05-16T14:24:37;5.22;;;1.33;;
31728;SDS011;18309;43.658;1.312;2023-05-16T14:27:03;4.07;;;1.02;;
31728;SDS011;18309;43.658;1.312;2023-05-16T14:29:28;4.00;;;1.10;;
31728;SDS011;18309;43.658;1.312;2023-05-16T14:31:54;5.28;;;1.05;;
31728;SDS011;18309;43.658;1.312;2023-05-16T14:34:20;2.92;;;1.00;;
31728;SDS011;18309;43.658;1.312;2023-05-16T14:36:48;8.95;;;1.55;;
31728;SDS011;18309;43.658;1.312;2023-05-16T14:39:14;4.75;;;1.30;;
31728;SDS011;18309;43.658;1.312;2023-05-16T14:41:40;6.28;;;1.55;;
31728;SDS011;18309;43.658;1.312;2023-05-16T14:44:06;6.35;;;1.42;;
31728;SDS011;18309;43.658;1.312;2023-05-16T14:46:32;4.22;;;1.10;;
31728;SDS011;18309;43.658;1.312;2023-05-16T14:48:57;9.93;;;1.85;;
31728;SDS011;18309;43.658;1.312;2023-05-16T14:51:23;5.95;;;1.60;;
31728;SDS011;18309;43.658;1.312;2023-05-16T14:53:49;3.83;;;1.40;;
31728;SDS011;18309;43.658;1.312;2023-05-16T14:56:19;8.50;;;2.17;;
31728;SDS011;18309;43.658;1.312;2023-05-16T14:58:45;9.05;;;1.55;;
31728;SDS011;18309;43.658;1.312;2023-05-16T15:01:11;17.38;;;1.58;;
31728;SDS011;18309;43.658;1.312;2023-05-16T15:03:37;5.70;;;1.27;;
31728;SDS011;18309;43.658;1.312;2023-05-16T15:06:03;6.47;;;1.60;;
31728;SDS011;18309;43.658;1.312;2023-05-16T15:08:31;6.20;;;1.25;;
31728;SDS011;18309;43.658;1.312;2023-05-16T15:10:58;7.00;;;1.50;;
31728;SDS011;18309;43.658;1.312;2023-05-16T15:13:24;6.38;;;1.55;;
31728;SDS011;18309;43.658;1.312;2023-05-16T15:15:50;3.75;;;1.42;;
31728;SDS011;18309;43.658;1.312;2023-05-16T15:18:16;9.30;;;1.83;;
31728;SDS011;18309;43.658;1.312;2023-05-16T15:20:42;6.93;;;1.50;;
31728;SDS011;18309;43.658;1.312;2023-05-16T15:23:08;6.53;;;1.45;;
31728;SDS011;18309;43.658;1.312;2023-05-16T15:25:34;6.20;;;1.45;;
31728;SDS011;18309;43.658;1.312;2023-05-16T15:27:59;11.88;;;1.45;;